Kelly, Georgia
Current Conditions -  °F | °C
As of 9:35 PM on Sunday 23 Nov 2014 (Local Time) from KCVC Reporting Station
Scattered Clouds Scattered Clouds  
Wind Chill: 61°   Ceiling: Unl
Heat Index: 61°   Visibility: 10mi
Dew Point: 59°   Wind: 5mph
Humidity: 94%   Direction: 200°SSW
Pressure: 29.74"   Gusts: NA
Location:  33.4001°N, 83.6636°W
Report Text: KCVC 240235Z AUTO 20004KT 10SM SCT023 SCT028 16/15 A2974 RMK AO2
Loading
Personal Weather Stations






























Interactive Weather Map New forecast layout! Learn more

10-Day Weather Forecast

Advertisements
Track Severe Weather on mobile